Impacts TAF Board
For situational awareness. Not to be used for flight planning purposes.
IDs:

KPHX - Phoenix/Sky Harbor, AZ, US

Issued at 1120 UTC 21 Sep 2018
Updated at 1241 UTC 21 Sep 2018
Potential Impact None Slight Moderate High
Time1151Z 21/13Z 21/14Z 21/15Z 21/16Z 21/17Z 21/18Z 21/19Z 21/20Z 21/21Z 21/22Z 21/23Z 22/00Z 22/01Z>>
Type OBS PRVL PRVL PRVL PRVL PRVL PRVL PRVL PRVL PRVL PRVL PRVL PRVL PRVL
VIS 10 >6 >6 >6 >6 >6 >6 >6 >6 >6 >6 >6 >6 >6
CIG -- -- -- -- -- -- -- -- -- -- -- -- -- --
Cover FEW FEW FEW FEW FEW FEW FEW FEW FEW FEW FEW FEW FEW FEW
FltCat VFR VFR VFR VFR VFR VFR VFR VFR VFR VFR VFR VFR VFR VFR
WX -- -- -- -- -- -- -- -- -- -- -- -- -- --
WDir 100 110 110 110 110 110 110 290 290 290 290 290 290 290
WSpd 8 5 5 5 5 5 5 8 8 8 8 8 8 8
WGst -- -- -- -- -- -- -- -- -- -- -- -- -- --
Raw TAF
KPHX 211120Z 2112/2218 11005KT P6SM FEW250
  FM211900 29008KT P6SM FEW080 FEW250
  FM220800 10005KT P6SM SKC


Raw METAR
KPHX 211151Z 10008KT 10SM FEW160 FEW200 26/20 A2990 RMK AO2 SLP103 T02610200 10300 20261 53010
KPHX 211051Z 11006KT 10SM FEW250 27/20 A2988 RMK AO2 SLP097 T02670200
KPHX 210951Z 12006KT 10SM FEW250 27/21 A2987 RMK AO2 SLP093 T02720206

METAR Board
Radar Display
Forecast Discussion
For situational awareness. Not to be used for flight planning purposes.